Time;durP1;ratioP1;P1;durP2;ratioP2;P2;SDS_P1;SDS_P2;PMS_P1;PMS_P2;Temp;Humidity;BMP_temperature;BMP_pressure;BME280_temperature;BME280_humidity;BME280_pressure;Samples;Min_cycle;Max_cycle;Signal;HPM_P1;HPM_P2
2024/03/02 00:01:35;;;;;;;21.20;10.45;;;;;;;9.01;100.00;99564.16;5162418;28;20561;-74
2024/03/02 00:04:07;;;;;;;21.75;11.07;;;;;;;8.95;100.00;99563.56;5164031;28;20041;-72
2024/03/02 00:06:37;;;;;;;21.50;11.30;;;;;;;8.86;100.00;99564.81;5163830;28;21393;-74
2024/03/02 00:09:12;;;;;;;21.73;10.80;;;;;;;8.87;100.00;99566.53;5165664;28;20453;-74
2024/03/02 00:11:42;;;;;;;21.83;11.23;;;;;;;8.76;100.00;99562.72;5165293;28;20057;-74
2024/03/02 00:14:13;;;;;;;21.70;11.48;;;;;;;8.73;100.00;99557.63;5162500;28;20491;-74
2024/03/02 00:16:43;;;;;;;22.17;12.02;;;;;;;8.72;100.00;99556.78;5162586;28;20069;-74
2024/03/02 00:19:13;;;;;;;23.83;11.25;;;;;;;8.70;100.00;99565.59;5164006;28;20045;-74
2024/03/02 00:21:44;;;;;;;22.58;11.75;;;;;;;8.68;100.00;99559.56;5169441;28;20214;-74
2024/03/02 00:24:20;;;;;;;23.02;11.70;;;;;;;8.61;100.00;99560.78;5150507;28;20033;-74
2024/03/02 00:26:50;;;;;;;20.20;10.82;;;;;;;8.58;100.00;99550.50;5165566;28;20032;-74
2024/03/02 00:29:21;;;;;;;21.75;11.43;;;;;;;8.57;100.00;99552.25;5162385;28;20030;-74
2024/03/02 00:31:51;;;;;;;24.23;12.38;;;;;;;8.59;100.00;99549.59;5155940;28;20022;-74
2024/03/02 00:34:22;;;;;;;24.98;12.38;;;;;;;8.66;100.00;99557.06;5164677;28;20049;-74
2024/03/02 00:36:53;;;;;;;28.60;12.68;;;;;;;8.55;100.00;99555.84;5170606;28;20156;-74
2024/03/02 00:39:23;;;;;;;27.38;12.27;;;;;;;8.54;100.00;99551.56;5166397;28;20041;-74
2024/03/02 00:41:53;;;;;;;26.05;12.15;;;;;;;8.58;100.00;99547.91;5160989;28;20018;-74
2024/03/02 00:44:26;;;;;;;22.23;11.35;;;;;;;8.64;100.00;99555.44;5164175;28;20084;-74
2024/03/02 00:46:59;;;;;;;23.92;12.05;;;;;;;8.71;100.00;99544.66;5166730;28;20074;-74
2024/03/02 00:49:30;;;;;;;23.20;11.85;;;;;;;8.70;100.00;99548.19;5162639;28;20022;-74
2024/03/02 00:52:00;;;;;;;23.58;12.02;;;;;;;8.60;100.00;99544.31;5151251;28;20040;-74
2024/03/02 00:54:30;;;;;;;21.00;10.73;;;;;;;8.59;100.00;99540.00;5149919;28;20034;-74
2024/03/02 00:57:01;;;;;;;24.95;11.57;;;;;;;8.55;100.00;99543.66;5170338;28;20014;-74
2024/03/02 00:59:32;;;;;;;24.50;11.10;;;;;;;8.52;100.00;99543.78;5166107;28;20173;-74
2024/03/02 01:02:02;;;;;;;23.67;12.13;;;;;;;8.60;100.00;99546.06;5165120;28;20112;-74
2024/03/02 01:04:32;;;;;;;25.55;12.40;;;;;;;8.48;100.00;99544.00;5164693;28;20484;-74
2024/03/02 01:07:03;;;;;;;26.10;12.25;;;;;;;8.47;100.00;99543.16;5167622;28;20053;-74
2024/03/02 01:09:33;;;;;;;23.92;11.82;;;;;;;8.48;100.00;99544.00;5165857;28;20146;-74
2024/03/02 01:12:04;;;;;;;30.17;12.93;;;;;;;8.41;100.00;99530.38;5167619;28;20057;-74
2024/03/02 01:14:35;;;;;;;27.58;12.85;;;;;;;8.43;100.00;99527.72;5165236;28;20081;-74
2024/03/02 01:17:05;;;;;;;24.83;12.40;;;;;;;8.44;100.00;99529.41;5164058;28;20034;-73
2024/03/02 01:19:35;;;;;;;25.02;12.77;;;;;;;8.44;100.00;99532.03;5164673;28;20030;-74
2024/03/02 01:22:06;;;;;;;27.92;12.48;;;;;;;8.60;100.00;99536.50;5159912;28;20237;-74
2024/03/02 01:24:36;;;;;;;25.15;11.52;;;;;;;8.57;100.00;99531.41;5164080;28;20401;-74
2024/03/02 01:27:07;;;;;;;24.25;11.70;;;;;;;8.40;100.00;99533.91;5165421;28;20034;-74
2024/03/02 01:29:38;;;;;;;22.55;12.27;;;;;;;8.48;100.00;99533.56;5163721;28;20036;-74
2024/03/02 01:32:08;;;;;;;29.77;12.55;;;;;;;8.42;100.00;99536.44;5164808;28;20397;-74
2024/03/02 01:34:38;;;;;;;27.23;13.40;;;;;;;8.37;100.00;99534.03;5163565;28;20368;-74
2024/03/02 01:37:09;;;;;;;25.38;12.45;;;;;;;8.20;100.00;99525.28;5163249;28;20391;-74
2024/03/02 01:39:40;;;;;;;26.55;12.65;;;;;;;8.29;100.00;99541.34;5165919;28;20164;-74
2024/03/02 01:42:13;;;;;;;29.40;13.15;;;;;;;8.38;100.00;99533.13;5165907;28;20430;-74
2024/03/02 01:44:43;;;;;;;25.35;12.73;;;;;;;8.52;100.00;99533.38;5168807;28;20463;-74
2024/03/02 01:47:14;;;;;;;30.17;13.02;;;;;;;8.40;100.00;99533.91;5165034;28;20046;-73
2024/03/02 01:49:44;;;;;;;26.92;12.20;;;;;;;8.51;100.00;99534.28;5166437;28;20026;-74
2024/03/02 01:52:14;;;;;;;27.85;12.63;;;;;;;8.36;100.00;99531.53;5166846;28;20026;-73
2024/03/02 01:54:44;;;;;;;25.55;11.98;;;;;;;8.30;100.00;99531.78;5167380;28;20452;-73
2024/03/02 01:57:15;;;;;;;26.30;12.93;;;;;;;8.25;100.00;99531.97;5166654;28;20080;-73
2024/03/02 01:59:50;;;;;;;27.00;12.98;;;;;;;8.27;100.00;99532.75;5155053;28;20023;-74
2024/03/02 02:02:21;;;;;;;27.17;13.38;;;;;;;8.22;100.00;99542.50;5153315;28;20030;-74
2024/03/02 02:04:51;;;;;;;28.08;13.35;;;;;;;8.27;100.00;99543.19;5163158;28;20510;-74
2024/03/02 02:07:22;;;;;;;28.73;13.98;;;;;;;8.17;100.00;99547.03;5160295;28;20122;-74
2024/03/02 02:09:52;;;;;;;27.85;13.82;;;;;;;8.09;100.00;99541.31;5167689;28;20430;-74
2024/03/02 02:12:22;;;;;;;30.30;13.57;;;;;;;8.16;100.00;99550.53;5166680;28;20026;-74
2024/03/02 02:14:53;;;;;;;29.70;14.35;;;;;;;8.11;100.00;99555.09;5169030;28;20033;-74
2024/03/02 02:17:23;;;;;;;29.38;14.85;;;;;;;8.14;100.00;99547.16;5164420;28;20014;-74
2024/03/02 02:19:53;;;;;;;28.48;14.65;;;;;;;8.10;100.00;99548.22;5168211;28;20026;-74
2024/03/02 02:22:24;;;;;;;27.75;14.00;;;;;;;8.12;100.00;99545.53;5165715;28;20022;-74
2024/03/02 02:24:54;;;;;;;29.38;14.07;;;;;;;8.06;100.00;99549.22;5171477;28;20400;-74
2024/03/02 02:27:24;;;;;;;30.73;14.82;;;;;;;8.13;100.00;99552.44;5166522;28;20048;-74
2024/03/02 02:29:56;;;;;;;31.70;14.65;;;;;;;8.12;100.00;99551.59;5167823;28;20108;-74
2024/03/02 02:32:26;;;;;;;32.65;15.07;;;;;;;8.12;100.00;99548.13;5168047;28;20026;-74
2024/03/02 02:34:56;;;;;;;32.35;15.23;;;;;;;8.10;100.00;99545.63;5163327;28;20018;-74
2024/03/02 02:37:27;;;;;;;30.50;15.25;;;;;;;8.27;100.00;99544.91;5166555;28;20051;-74
2024/03/02 02:39:57;;;;;;;28.52;14.30;;;;;;;8.15;100.00;99550.59;5168621;28;20543;-74
2024/03/02 02:42:27;;;;;;;26.67;13.30;;;;;;;8.31;100.00;99543.88;5167317;28;20050;-74
2024/03/02 02:44:58;;;;;;;28.83;13.77;;;;;;;8.12;100.00;99543.78;5169010;28;20112;-74
2024/03/02 02:47:29;;;;;;;31.75;15.15;;;;;;;8.11;100.00;99546.44;5162348;28;20023;-74
2024/03/02 02:49:59;;;;;;;29.27;14.55;;;;;;;8.08;100.00;99546.56;5168526;28;20476;-74
2024/03/02 02:52:36;;;;;;;30.08;14.10;;;;;;;8.21;100.00;99545.19;5166405;28;20034;-74
2024/03/02 02:55:08;;;;;;;29.20;14.52;;;;;;;8.05;100.00;99537.13;5166501;28;20034;-74
2024/03/02 02:57:40;;;;;;;28.45;14.52;;;;;;;8.12;100.00;99541.19;5167177;28;20030;-74
2024/03/02 03:00:14;;;;;;;30.70;14.18;;;;;;;8.10;100.00;99539.53;5168151;28;20035;-74
2024/03/02 03:02:48;;;;;;;28.17;14.27;;;;;;;7.97;100.00;99533.16;5166967;28;20030;-74
2024/03/02 03:05:19;;;;;;;30.02;14.43;;;;;;;7.89;100.00;99536.06;5162705;28;20030;-73
2024/03/02 03:07:49;;;;;;;28.48;13.82;;;;;;;7.90;100.00;99534.34;5166962;28;20499;-74
2024/03/02 03:10:22;;;;;;;28.95;13.90;;;;;;;7.91;100.00;99531.66;5167836;28;20054;-74
2024/03/02 03:12:52;;;;;;;28.65;14.50;;;;;;;7.90;100.00;99535.16;5171126;28;20295;-74
2024/03/02 03:15:22;;;;;;;34.67;15.25;;;;;;;7.96;100.00;99531.47;5166269;28;20268;-73
2024/03/02 03:17:53;;;;;;;32.45;15.07;;;;;;;7.96;100.00;99537.53;5165341;28;20102;-74
2024/03/02 03:20:23;;;;;;;30.02;14.52;;;;;;;8.02;100.00;99536.44;5166541;28;21512;-72
2024/03/02 03:22:53;;;;;;;30.95;15.40;;;;;;;8.13;100.00;99529.00;5169807;28;20023;-74
2024/03/02 03:25:24;;;;;;;26.05;14.50;;;;;;;8.11;100.00;99525.63;5147805;28;20410;-74
2024/03/02 03:27:54;;;;;;;32.65;15.70;;;;;;;7.96;100.00;99524.53;5169626;28;20022;-74
2024/03/02 03:30:25;;;;;;;29.90;14.70;;;;;;;8.03;100.00;99518.13;5163306;28;20035;-74
2024/03/02 03:32:55;;;;;;;31.33;15.35;;;;;;;7.97;100.00;99518.41;5166168;28;20026;-74
2024/03/02 03:35:26;;;;;;;29.20;14.68;;;;;;;7.97;100.00;99525.34;5165074;28;20040;-74
2024/03/02 03:37:56;;;;;;;28.35;14.68;;;;;;;7.95;100.00;99530.66;5166021;28;20022;-74
2024/03/02 03:40:26;;;;;;;29.95;14.88;;;;;;;7.84;100.00;99522.44;5163187;28;20045;-74
2024/03/02 03:42:57;;;;;;;29.88;15.43;;;;;;;7.84;100.00;99517.22;5167542;28;20053;-74
2024/03/02 03:45:27;;;;;;;31.08;15.48;;;;;;;7.94;100.00;99518.53;5164740;28;20062;-74
2024/03/02 03:47:57;;;;;;;33.60;16.35;;;;;;;7.93;100.00;99522.06;5166997;28;20342;-74
2024/03/02 03:50:28;;;;;;;32.22;15.82;;;;;;;7.86;100.00;99514.56;5165991;28;20065;-74
2024/03/02 03:52:58;;;;;;;32.47;15.10;;;;;;;7.80;100.00;99513.06;5148837;28;20069;-74
2024/03/02 03:55:29;;;;;;;30.95;15.15;;;;;;;7.88;100.00;99512.75;5164012;28;20061;-74
2024/03/02 03:57:59;;;;;;;28.90;14.70;;;;;;;7.92;100.00;99514.31;5166624;28;20113;-74
2024/03/02 04:00:29;;;;;;;30.20;14.80;;;;;;;7.98;100.00;99512.31;5158044;28;20061;-74
2024/03/02 04:03:00;;;;;;;25.50;13.63;;;;;;;8.01;100.00;99503.53;5160948;28;20071;-74
2024/03/02 04:05:30;;;;;;;26.95;14.02;;;;;;;8.06;100.00;99512.81;5165274;28;20065;-74
2024/03/02 04:08:01;;;;;;;27.02;13.85;;;;;;;8.04;100.00;99495.59;5166166;28;20109;-74
2024/03/02 04:10:31;;;;;;;27.70;14.73;;;;;;;8.00;100.00;99502.66;5146700;28;20578;-74
2024/03/02 04:13:01;;;;;;;26.85;13.90;;;;;;;7.98;100.00;99503.63;5162704;28;20514;-74
2024/03/02 04:15:32;;;;;;;28.20;13.82;;;;;;;7.93;100.00;99509.06;5162945;28;20030;-74
2024/03/02 04:18:02;;;;;;;29.40;14.38;;;;;;;8.01;100.00;99493.94;5163621;28;20030;-74
2024/03/02 04:20:32;;;;;;;26.65;13.88;;;;;;;7.99;100.00;99508.78;5165500;28;20373;-74
2024/03/02 04:23:03;;;;;;;26.05;13.88;;;;;;;8.07;100.00;99493.69;5161528;28;20038;-74
2024/03/02 04:25:33;;;;;;;30.05;14.38;;;;;;;8.01;100.00;99509.56;5160627;28;20034;-74
2024/03/02 04:28:04;;;;;;;29.92;14.02;;;;;;;7.99;100.00;99493.19;5160961;28;20373;-74
2024/03/02 04:30:34;;;;;;;27.30;14.07;;;;;;;7.95;100.00;99499.44;5160264;28;20033;-74
2024/03/02 04:33:07;;;;;;;26.40;13.23;;;;;;;7.94;100.00;99508.16;5160493;28;20034;-74
2024/03/02 04:35:37;;;;;;;23.75;12.75;;;;;;;7.97;100.00;99510.59;5161753;28;20141;-74
2024/03/02 04:38:08;;;;;;;24.27;12.60;;;;;;;7.95;100.00;99508.97;5162627;28;20500;-74
2024/03/02 04:40:38;;;;;;;27.33;13.45;;;;;;;7.84;100.00;99509.41;5148688;28;20038;-74
2024/03/02 04:43:09;;;;;;;48.22;21.95;;;;;;;7.77;100.00;99515.81;5162965;28;20037;-74
2024/03/02 04:45:40;;;;;;;49.72;22.42;;;;;;;7.72;100.00;99520.31;5161370;28;20377;-74
2024/03/02 04:48:10;;;;;;;29.52;13.77;;;;;;;7.81;100.00;99522.56;5164739;28;20068;-74
2024/03/02 04:50:40;;;;;;;25.52;13.07;;;;;;;7.99;100.00;99511.38;5160734;28;20026;-74
2024/03/02 04:53:11;;;;;;;24.60;12.90;;;;;;;8.02;100.00;99520.84;5161203;28;20452;-74
2024/03/02 04:58:11;;;;;;;27.25;13.13;;;;;;;7.88;100.00;99523.16;5163264;28;20030;-74
2024/03/02 05:00:42;;;;;;;22.23;12.20;;;;;;;7.71;100.00;99529.03;5164464;28;20026;-74
2024/03/02 05:03:13;;;;;;;24.58;12.80;;;;;;;7.75;100.00;99527.16;5161620;28;20447;-74
2024/03/02 05:05:44;;;;;;;25.73;13.63;;;;;;;7.70;100.00;99529.94;5162364;28;20022;-74
2024/03/02 05:08:16;;;;;;;25.75;13.70;;;;;;;7.67;100.00;99526.66;5156027;28;20066;-74
2024/03/02 05:10:46;;;;;;;29.45;14.00;;;;;;;7.65;100.00;99524.09;5160013;28;20380;-74
2024/03/02 05:13:17;;;;;;;30.23;13.68;;;;;;;7.65;100.00;99539.69;5159569;28;20520;-74
2024/03/02 05:15:47;;;;;;;31.50;14.85;;;;;;;7.58;100.00;99525.25;5161947;28;20127;-74
2024/03/02 05:18:18;;;;;;;32.15;15.82;;;;;;;7.61;100.00;99535.53;5156048;28;20014;-74
2024/03/02 05:20:48;;;;;;;31.42;15.60;;;;;;;7.47;100.00;99536.97;5158475;28;20036;-74
2024/03/02 05:23:18;;;;;;;34.97;16.80;;;;;;;7.53;100.00;99542.78;5160960;28;20019;-73
2024/03/02 05:25:49;;;;;;;36.30;17.23;;;;;;;7.55;100.00;99535.75;5160405;28;20045;-74
2024/03/02 05:28:19;;;;;;;34.30;16.73;;;;;;;7.51;100.00;99544.59;5163402;28;20026;-74
2024/03/02 05:30:49;;;;;;;34.72;16.98;;;;;;;7.46;100.00;99541.34;5160138;28;20025;-74
2024/03/02 05:33:22;;;;;;;33.00;16.95;;;;;;;7.53;100.00;99542.78;5160510;28;20112;-74
2024/03/02 05:35:53;;;;;;;33.97;17.30;;;;;;;7.48;100.00;99544.72;5126365;28;20045;-74
2024/03/02 05:38:23;;;;;;;35.15;17.02;;;;;;;7.34;100.00;99533.19;5162652;28;20018;-74
2024/03/02 05:40:54;;;;;;;39.40;18.23;;;;;;;7.33;100.00;99531.50;5166252;28;20030;-74
2024/03/02 05:43:24;;;;;;;34.25;16.70;;;;;;;7.31;100.00;99534.13;5162555;28;20550;-74
2024/03/02 05:45:54;;;;;;;38.60;17.25;;;;;;;7.37;100.00;99535.66;5169294;28;20061;-74
2024/03/02 05:48:25;;;;;;;40.55;17.70;;;;;;;7.37;100.00;99531.28;5166837;28;20029;-74
2024/03/02 05:50:55;;;;;;;35.17;16.65;;;;;;;7.28;100.00;99547.25;5164508;28;20034;-74
2024/03/02 05:53:25;;;;;;;34.22;16.83;;;;;;;7.29;100.00;99543.75;5164409;28;20130;-74
2024/03/02 05:55:56;;;;;;;33.22;16.63;;;;;;;7.22;100.00;99547.47;5167840;28;20038;-74
2024/03/02 05:58:46;;;;;;;33.10;16.75;;;;;;;7.32;100.00;99556.63;5165879;28;20076;-74
2024/03/02 06:01:17;;;;;;;35.85;16.38;;;;;;;7.28;100.00;99544.66;5167729;28;20359;-74
2024/03/02 06:03:49;;;;;;;31.02;15.50;;;;;;;7.28;100.00;99546.41;5165909;28;20490;-74
2024/03/02 06:06:19;;;;;;;34.42;16.42;;;;;;;7.30;100.00;99539.38;5163658;28;20026;-74
2024/03/02 06:08:50;;;;;;;30.98;15.80;;;;;;;7.30;100.00;99549.78;5167415;28;20076;-74
2024/03/02 06:11:20;;;;;;;37.60;16.65;;;;;;;7.33;100.00;99550.50;5166657;28;20030;-73
2024/03/02 06:13:50;;;;;;;36.13;17.73;;;;;;;7.31;100.00;99557.53;5167597;28;20042;-74
2024/03/02 06:16:21;;;;;;;39.15;17.55;;;;;;;7.29;100.00;99554.13;5168840;28;20410;-74
2024/03/02 06:18:51;;;;;;;36.42;17.02;;;;;;;7.45;100.00;99560.44;5166975;28;20060;-74
2024/03/02 06:21:21;;;;;;;36.45;16.65;;;;;;;7.37;100.00;99557.28;5168329;28;20124;-74
2024/03/02 06:23:52;;;;;;;34.97;16.73;;;;;;;7.50;100.00;99542.91;5165957;28;20025;-74
2024/03/02 06:26:22;;;;;;;31.90;15.88;;;;;;;7.39;100.00;99560.66;5166913;28;20034;-74
2024/03/02 06:28:52;;;;;;;35.03;16.92;;;;;;;7.45;100.00;99564.78;5167384;28;20499;-74
2024/03/02 06:31:23;;;;;;;30.90;15.82;;;;;;;7.40;100.00;99561.53;5162160;28;20125;-74
2024/03/02 06:33:53;;;;;;;38.22;16.25;;;;;;;7.46;100.00;99562.13;5166157;28;20034;-74
2024/03/02 06:36:23;;;;;;;34.55;16.15;;;;;;;7.62;100.00;99568.41;5167200;28;21023;-74
2024/03/02 06:38:54;;;;;;;33.08;16.45;;;;;;;7.62;100.00;99563.22;5163640;28;20060;-74
2024/03/02 06:41:24;;;;;;;35.28;16.48;;;;;;;7.54;100.00;99574.81;5163209;28;20065;-74
2024/03/02 06:43:59;;;;;;;28.38;16.42;;;;;;;7.49;100.00;99575.00;5168612;28;20137;-74
2024/03/02 06:46:29;;;;;;;30.60;15.48;;;;;;;7.62;100.00;99576.22;5167211;28;20030;-74
2024/03/02 06:49:02;;;;;;;32.33;16.20;;;;;;;7.58;100.00;99574.66;5167990;28;20068;-74
2024/03/02 06:51:34;;;;;;;31.13;15.43;;;;;;;7.71;100.00;99573.22;5168646;28;20034;-74
2024/03/02 06:54:04;;;;;;;29.70;15.27;;;;;;;7.65;100.00;99578.69;5168639;28;20436;-74
2024/03/02 06:56:34;;;;;;;31.45;15.70;;;;;;;7.58;100.00;99577.25;5167488;28;20249;-74
2024/03/02 06:59:05;;;;;;;29.60;14.95;;;;;;;7.59;100.00;99581.53;5167903;28;20515;-73
2024/03/02 07:01:35;;;;;;;29.83;15.38;;;;;;;7.67;100.00;99584.66;5163271;28;20105;-74
2024/03/02 07:04:06;;;;;;;31.48;15.32;;;;;;;7.67;100.00;99576.03;5166436;28;20117;-74
2024/03/02 07:06:36;;;;;;;30.48;14.85;;;;;;;7.52;100.00;99572.28;5166794;28;20651;-74
2024/03/02 07:09:10;;;;;;;29.75;14.63;;;;;;;7.61;100.00;99582.31;5168178;28;20034;-74
2024/03/02 07:11:41;;;;;;;30.33;15.20;;;;;;;7.62;100.00;99578.81;5167451;28;20356;-74
2024/03/02 07:14:11;;;;;;;33.05;15.77;;;;;;;7.69;100.00;99575.06;5149962;28;20045;-74
2024/03/02 07:16:43;;;;;;;31.23;15.25;;;;;;;7.80;100.00;99574.63;5168239;28;20030;-74
2024/03/02 07:19:13;;;;;;;32.72;15.35;;;;;;;7.92;100.00;99572.41;5167081;28;20033;-74
2024/03/02 07:21:43;;;;;;;31.58;15.25;;;;;;;7.89;100.00;99567.28;5168520;28;20030;-74
2024/03/02 07:24:16;;;;;;;32.45;15.50;;;;;;;7.97;100.00;99564.38;5166727;28;20026;-74
2024/03/02 07:26:46;;;;;;;31.23;15.15;;;;;;;8.09;100.00;99571.69;5168225;28;20041;-74
2024/03/02 07:29:16;;;;;;;29.98;15.50;;;;;;;8.13;100.00;99571.50;5164602;28;20022;-74
2024/03/02 07:31:47;;;;;;;30.27;14.60;;;;;;;8.27;100.00;99578.75;5165046;28;20139;-74
2024/03/02 07:34:17;;;;;;;30.00;15.10;;;;;;;8.29;100.00;99582.13;5165749;28;20113;-74
2024/03/02 07:36:47;;;;;;;26.88;13.63;;;;;;;8.33;100.00;99578.47;5166323;28;20116;-74
2024/03/02 07:39:19;;;;;;;33.65;16.27;;;;;;;8.45;100.00;99588.38;5160170;28;20610;-74
2024/03/02 07:41:49;;;;;;;32.72;15.07;;;;;;;8.60;100.00;99583.38;5158707;28;20061;-74
2024/03/02 07:44:20;;;;;;;33.10;15.85;;;;;;;8.64;100.00;99590.13;5168380;28;20057;-74
2024/03/02 07:46:50;;;;;;;31.38;15.15;;;;;;;8.82;100.00;99594.53;5164224;28;20027;-74
2024/03/02 07:49:21;;;;;;;27.30;14.10;;;;;;;8.76;100.00;99599.16;5160608;28;20516;-74
2024/03/02 07:51:51;;;;;;;29.92;14.15;;;;;;;8.95;100.00;99598.31;5158779;28;20031;-74
2024/03/02 07:54:21;;;;;;;27.70;14.43;;;;;;;8.91;100.00;99588.91;5161506;28;20469;-74
2024/03/02 07:56:52;;;;;;;27.20;14.45;;;;;;;9.18;100.00;99598.09;5158219;28;20025;-74
2024/03/02 07:59:22;;;;;;;30.85;14.88;;;;;;;9.14;100.00;99591.34;5158381;28;20026;-74
2024/03/02 08:01:55;;;;;;;30.88;14.20;;;;;;;9.40;100.00;99589.22;5158933;28;20058;-75
2024/03/02 08:04:25;;;;;;;24.73;13.55;;;;;;;9.51;100.00;99596.56;5162242;28;20026;-74
2024/03/02 08:06:55;;;;;;;28.50;14.68;;;;;;;9.69;100.00;99598.28;5158993;28;20029;-74
2024/03/02 08:09:26;;;;;;;26.73;14.30;;;;;;;9.89;100.00;99611.22;5162602;28;20465;-74
2024/03/02 08:11:58;;;;;;;26.73;14.05;;;;;;;10.02;100.00;99601.91;5159355;28;20022;-74
2024/03/02 08:14:28;;;;;;;26.55;13.55;;;;;;;10.46;100.00;99605.75;5161993;28;20022;-74
2024/03/02 08:16:58;;;;;;;29.27;15.20;;;;;;;11.04;96.04;99603.53;5163319;28;20498;-75
2024/03/02 08:19:29;;;;;;;25.23;12.85;;;;;;;11.39;93.64;99607.72;5168841;28;20021;-74
2024/03/02 08:21:59;;;;;;;23.75;13.05;;;;;;;11.88;92.12;99601.50;5170346;28;20068;-75
2024/03/02 08:24:30;;;;;;;24.98;12.98;;;;;;;12.78;88.66;99596.16;5169450;28;20026;-75
2024/03/02 08:27:00;;;;;;;25.00;13.02;;;;;;;13.41;82.67;99602.75;5168138;28;20026;-75
2024/03/02 08:29:31;;;;;;;22.67;12.45;;;;;;;15.01;78.09;99594.63;5167442;28;20152;-75
2024/03/02 08:32:02;;;;;;;21.35;11.45;;;;;;;15.99;75.66;99591.91;5159845;28;20108;-75
2024/03/02 08:34:35;;;;;;;23.42;11.75;;;;;;;16.02;73.69;99591.66;5160483;28;20035;-75
2024/03/02 08:37:05;;;;;;;21.30;11.40;;;;;;;16.12;74.01;99589.19;5168836;28;20025;-75
2024/03/02 08:39:35;;;;;;;19.75;11.05;;;;;;;15.49;73.27;99592.06;5167961;28;20024;-75
2024/03/02 08:42:06;;;;;;;20.23;11.27;;;;;;;15.62;73.27;99597.28;5168770;28;20117;-74
2024/03/02 08:44:36;;;;;;;20.13;11.20;;;;;;;16.07;73.25;99594.78;5169118;28;20852;-75
2024/03/02 08:47:07;;;;;;;20.08;11.52;;;;;;;15.88;72.41;99605.00;5170491;28;20038;-75
2024/03/02 08:49:37;;;;;;;20.02;12.02;;;;;;;15.46;73.51;99597.56;5167115;28;20476;-75
2024/03/02 08:52:07;;;;;;;18.85;11.05;;;;;;;15.89;72.54;99595.31;5166463;28;20462;-75
2024/03/02 08:54:38;;;;;;;19.02;11.55;;;;;;;15.99;72.06;99596.31;5164347;28;20034;-75
2024/03/02 08:57:08;;;;;;;19.90;11.38;;;;;;;15.77;72.80;99591.78;5167431;28;20060;-75
2024/03/02 08:59:39;;;;;;;20.17;11.45;;;;;;;15.79;73.12;99589.88;5169664;28;20133;-75
2024/03/02 09:02:09;;;;;;;19.50;11.18;;;;;;;15.88;72.76;99591.81;5170651;28;20037;-75
2024/03/02 09:04:40;;;;;;;21.63;11.60;;;;;;;15.14;73.67;99596.31;5167830;28;20368;-74
2024/03/02 09:07:10;;;;;;;21.80;11.55;;;;;;;14.86;76.72;99598.31;5169166;28;20069;-74
2024/03/02 09:09:40;;;;;;;21.02;11.25;;;;;;;14.52;77.17;99601.53;5169215;28;20069;-75
2024/03/02 09:12:11;;;;;;;21.70;11.32;;;;;;;14.32;77.19;99607.28;5164249;28;20030;-75
2024/03/02 09:14:41;;;;;;;22.73;11.88;;;;;;;14.06;78.72;99602.84;5160823;28;20064;-75
2024/03/02 09:17:12;;;;;;;21.02;11.70;;;;;;;14.08;80.35;99611.47;5166085;28;20486;-75
2024/03/02 09:19:42;;;;;;;22.98;11.88;;;;;;;13.46;81.66;99611.16;5148599;28;20517;-74
2024/03/02 09:22:13;;;;;;;22.58;12.52;;;;;;;13.15;83.01;99614.84;5166619;28;20068;-74
2024/03/02 09:24:43;;;;;;;21.67;12.40;;;;;;;12.93;83.43;99613.63;5168518;28;20022;-75
2024/03/02 09:27:13;;;;;;;19.77;11.80;;;;;;;12.98;83.99;99615.97;5166468;28;20151;-74
2024/03/02 09:29:45;;;;;;;23.65;12.23;;;;;;;12.77;85.28;99615.44;5152054;28;20109;-74
2024/03/02 09:32:16;;;;;;;24.90;13.23;;;;;;;12.56;85.76;99616.72;5170601;28;20201;-75
2024/03/02 09:34:48;;;;;;;24.33;12.80;;;;;;;12.84;86.77;99622.00;5161983;28;21097;-74
2024/03/02 09:37:18;;;;;;;22.05;11.65;;;;;;;12.90;85.82;99624.28;5164166;28;20026;-74
2024/03/02 09:39:48;;;;;;;24.58;12.77;;;;;;;12.82;86.12;99620.41;5162062;28;20045;-75
2024/03/02 09:42:19;;;;;;;25.10;13.73;;;;;;;12.82;86.40;99629.13;5208677;23;20052;-75
2024/03/02 09:44:50;;;;;;;22.77;12.63;;;;;;;12.91;86.00;99624.16;5209195;28;20028;-74
2024/03/02 09:47:20;;;;;;;22.92;12.73;;;;;;;13.10;85.76;99623.94;5195338;28;20124;-75
2024/03/02 09:49:51;;;;;;;23.25;12.43;;;;;;;13.12;84.04;99633.41;5193499;28;20065;-74
2024/03/02 09:52:23;;;;;;;24.35;12.07;;;;;;;13.09;86.16;99632.75;5212941;28;20044;-75
2024/03/02 09:54:53;;;;;;;26.30;12.77;;;;;;;13.36;84.60;99641.53;5198709;28;20028;-74
2024/03/02 09:57:24;;;;;;;25.05;12.20;;;;;;;12.95;84.31;99640.59;5210841;28;20041;-74
2024/03/02 09:59:54;;;;;;;21.27;11.93;;;;;;;12.99;85.64;99644.72;5214445;28;20403;-74
2024/03/02 10:02:24;;;;;;;22.42;12.73;;;;;;;13.37;86.65;99648.50;5211921;28;20024;-74
2024/03/02 10:04:55;;;;;;;21.65;11.98;;;;;;;13.40;84.74;99643.06;5217145;28;20024;-74
2024/03/02 10:07:25;;;;;;;23.15;12.75;;;;;;;13.19;85.81;99649.59;5211068;28;20090;-74
2024/03/02 10:09:55;;;;;;;21.80;12.57;;;;;;;13.14;85.72;99643.78;5212451;28;20029;-75
2024/03/02 10:12:26;;;;;;;24.70;12.85;;;;;;;12.94;85.64;99649.41;5211439;28;20036;-74
2024/03/02 10:15:04;;;;;;;23.00;12.63;;;;;;;13.06;87.36;99651.31;5215065;28;20037;-75
2024/03/02 10:17:35;;;;;;;22.48;12.77;;;;;;;13.23;86.69;99656.38;5211189;28;20491;-75
2024/03/02 10:20:23;;;;;;;26.10;12.85;;;;;;;13.09;88.28;99653.72;5199922;28;20048;-75
2024/03/02 10:22:53;;;;;;;24.17;13.25;;;;;;;13.00;88.30;99656.88;5212137;28;20035;-74
2024/03/02 10:25:34;;;;;;;24.42;13.02;;;;;;;13.38;87.33;99652.81;5195658;28;20471;-75
2024/03/02 10:28:07;;;;;;;23.20;12.50;;;;;;;13.43;87.24;99654.19;5207404;28;20033;-74
2024/03/02 10:30:37;;;;;;;23.33;12.93;;;;;;;13.45;86.51;99656.72;5213408;28;20035;-75
2024/03/02 10:33:08;;;;;;;21.45;12.02;;;;;;;13.61;86.21;99657.47;5218134;28;20482;-74
2024/03/02 10:35:39;;;;;;;24.15;12.55;;;;;;;13.91;86.51;99651.13;5211896;28;20035;-74
2024/03/02 10:38:11;;;;;;;24.95;13.45;;;;;;;14.04;85.96;99648.53;5200022;28;20033;-74
2024/03/02 10:40:47;;;;;;;24.38;12.95;;;;;;;14.02;84.60;99648.66;5203768;28;20113;-74
2024/03/02 10:43:17;;;;;;;;;;;;;;;13.77;84.20;99648.53;5203004;28;20052;-75
2024/03/02 10:45:50;;;;;;;24.65;12.75;;;;;;;14.41;85.45;99655.78;5205845;28;20060;-74
2024/03/02 10:48:21;;;;;;;23.40;12.95;;;;;;;14.49;85.07;99648.22;5215768;28;20025;-74
2024/03/02 10:50:53;;;;;;;20.35;11.18;;;;;;;14.74;80.57;99646.47;5218336;28;20021;-74
2024/03/02 10:53:23;;;;;;;21.90;12.13;;;;;;;14.49;85.00;99648.22;5218430;28;20498;-74
2024/03/02 10:56:02;;;;;;;22.70;12.32;;;;;;;13.96;83.95;99643.81;5219812;28;20025;-75
2024/03/02 10:58:35;;;;;;;23.73;12.45;;;;;;;13.87;86.69;99648.78;5215923;28;20021;-74
2024/03/02 11:01:07;;;;;;;22.58;11.50;;;;;;;14.48;84.06;99651.78;5208891;28;20051;-74
2024/03/02 11:03:38;;;;;;;22.73;11.13;;;;;;;14.52;80.79;99646.25;5210784;28;20051;-74
2024/03/02 11:06:11;;;;;;;18.10;10.70;;;;;;;13.88;82.06;99650.50;5218550;28;20515;-75
2024/03/02 11:08:45;;;;;;;20.27;10.27;;;;;;;13.86;81.08;99652.34;5217399;28;20032;-75
2024/03/02 11:11:25;;;;;;;17.83;8.75;;;;;;;13.89;79.88;99645.13;5215799;28;20036;-75
2024/03/02 11:14:01;;;;;;;20.67;10.23;;;;;;;14.18;80.08;99651.16;5217686;28;20482;-74
2024/03/02 11:16:36;;;;;;;;;;;;;;;14.14;79.75;99647.88;5219142;28;20648;-74
2024/03/02 11:19:10;;;;;;;18.50;10.75;;;;;;;13.62;82.98;99649.50;5215282;28;19942;-74
2024/03/02 11:21:41;;;;;;;21.33;11.05;;;;;;;14.05;83.09;99640.56;5219430;28;20025;-74
2024/03/02 11:24:24;;;;;;;19.52;10.10;;;;;;;14.17;80.95;99645.09;5218263;28;20029;-74
2024/03/02 11:26:54;;;;;;;21.95;10.40;;;;;;;14.03;81.93;99645.09;5217426;28;20371;-74
2024/03/02 11:29:36;;;;;;;18.15;10.55;;;;;;;14.28;82.22;99639.94;5213784;28;20066;-74
2024/03/02 11:32:17;;;;;;;19.13;10.63;;;;;;;14.27;81.74;99637.44;5210203;28;20039;-75
2024/03/02 11:34:49;;;;;;;20.23;11.07;;;;;;;14.27;82.20;99634.81;5212865;28;20111;-75
2024/03/02 11:37:20;;;;;;;20.13;11.38;;;;;;;14.07;82.91;99641.31;5216728;28;20372;-74